sensor_id;sensor_type;location;lat;lon;timestamp;pressure;altitude;pressure_sealevel;temperature;humidity
51313;BME280;37397;53.226;10.400;2023-03-23T00:01:22;99948.50;;;12.93;67.54
51313;BME280;37397;53.226;10.400;2023-03-23T00:03:51;99945.63;;;12.93;67.67
51313;BME280;37397;53.226;10.400;2023-03-23T00:06:21;99948.50;;;12.93;67.55
51313;BME280;37397;53.226;10.400;2023-03-23T00:08:48;99954.75;;;12.91;67.57
51313;BME280;37397;53.226;10.400;2023-03-23T00:11:17;99949.78;;;12.92;67.49
51313;BME280;37397;53.226;10.400;2023-03-23T00:13:44;99949.00;;;12.91;67.73
51313;BME280;37397;53.226;10.400;2023-03-23T00:16:11;99946.66;;;12.90;67.74
51313;BME280;37397;53.226;10.400;2023-03-23T00:18:47;99940.66;;;12.88;67.71
51313;BME280;37397;53.226;10.400;2023-03-23T00:21:13;99940.41;;;12.86;67.82
51313;BME280;37397;53.226;10.400;2023-03-23T00:23:39;99933.63;;;12.89;67.83
51313;BME280;37397;53.226;10.400;2023-03-23T00:26:05;99933.63;;;12.89;67.85
51313;BME280;37397;53.226;10.400;2023-03-23T00:28:31;99939.09;;;12.87;67.71
51313;BME280;37397;53.226;10.400;2023-03-23T00:30:58;99941.97;;;12.87;67.87
51313;BME280;37397;53.226;10.400;2023-03-23T00:33:26;99928.94;;;12.86;67.98
51313;BME280;37397;53.226;10.400;2023-03-23T00:35:53;99921.13;;;12.81;67.86
51313;BME280;37397;53.226;10.400;2023-03-23T00:38:21;99918.28;;;12.81;67.91
51313;BME280;37397;53.226;10.400;2023-03-23T00:40:46;99916.19;;;12.81;67.80
51313;BME280;37397;53.226;10.400;2023-03-23T00:43:15;99913.84;;;12.80;67.93
51313;BME280;37397;53.226;10.400;2023-03-23T00:45:43;99920.09;;;12.84;68.00
51313;BME280;37397;53.226;10.400;2023-03-23T00:48:19;99917.22;;;12.78;67.90
51313;BME280;37397;53.226;10.400;2023-03-23T00:50:44;99921.13;;;12.81;68.02
51313;BME280;37397;53.226;10.400;2023-03-23T00:53:10;99919.06;;;12.81;68.11
51313;BME280;37397;53.226;10.400;2023-03-23T00:55:35;99919.56;;;12.80;67.91
51313;BME280;37397;53.226;10.400;2023-03-23T00:58:01;99919.06;;;12.75;67.93
51313;BME280;37397;53.226;10.400;2023-03-23T01:00:26;99912.53;;;12.75;68.00
51313;BME280;37397;53.226;10.400;2023-03-23T01:02:53;99907.63;;;12.75;68.22
51313;BME280;37397;53.226;10.400;2023-03-23T01:05:18;99907.88;;;12.77;67.91
51313;BME280;37397;53.226;10.400;2023-03-23T01:07:44;99919.06;;;12.75;67.93
51313;BME280;37397;53.226;10.400;2023-03-23T01:10:11;99906.03;;;12.74;68.14
51313;BME280;37397;53.226;10.400;2023-03-23T01:12:46;99901.88;;;12.75;67.88
51313;BME280;37397;53.226;10.400;2023-03-23T01:15:16;99899.53;;;12.74;68.02
51313;BME280;37397;53.226;10.400;2023-03-23T01:17:42;99897.97;;;12.73;68.14
51313;BME280;37397;53.226;10.400;2023-03-23T01:20:10;99887.28;;;12.73;68.24
51313;BME280;37397;53.226;10.400;2023-03-23T01:22:37;99868.84;;;12.69;68.14
51313;BME280;37397;53.226;10.400;2023-03-23T01:25:02;99880.03;;;12.72;68.13
51313;BME280;37397;53.226;10.400;2023-03-23T01:27:28;99886.53;;;12.73;68.17
51313;BME280;37397;53.226;10.400;2023-03-23T01:29:53;99876.09;;;12.70;68.15
51313;BME280;37397;53.226;10.400;2023-03-23T01:32:19;99861.00;;;12.64;68.58
51313;BME280;37397;53.226;10.400;2023-03-23T01:34:46;99863.88;;;12.69;68.13
51313;BME280;37397;53.226;10.400;2023-03-23T01:37:11;99840.44;;;12.65;68.47
51313;BME280;37397;53.226;10.400;2023-03-23T01:39:37;99845.13;;;12.68;68.48
51313;BME280;37397;53.226;10.400;2023-03-23T01:42:03;99837.06;;;12.67;68.45
51313;BME280;37397;53.226;10.400;2023-03-23T01:47:03;99819.66;;;12.65;68.36
51313;BME280;37397;53.226;10.400;2023-03-23T01:49:38;99832.91;;;12.62;68.50
51313;BME280;37397;53.226;10.400;2023-03-23T01:52:11;99825.88;;;12.63;68.54
51313;BME280;37397;53.226;10.400;2023-03-23T01:54:44;99826.41;;;12.62;68.54
51313;BME280;37397;53.226;10.400;2023-03-23T01:57:13;99824.31;;;12.62;68.68
51313;BME280;37397;53.226;10.400;2023-03-23T01:59:45;99826.94;;;12.60;68.48
51313;BME280;37397;53.226;10.400;2023-03-23T02:02:20;99822.25;;;12.57;68.45
51313;BME280;37397;53.226;10.400;2023-03-23T02:04:47;99818.09;;;12.58;68.60
51313;BME280;37397;53.226;10.400;2023-03-23T02:07:15;99836.84;;;12.59;68.69
51313;BME280;37397;53.226;10.400;2023-03-23T02:09:42;99812.13;;;12.56;68.82
51313;BME280;37397;53.226;10.400;2023-03-23T02:12:08;99815.22;;;12.58;68.70
51313;BME280;37397;53.226;10.400;2023-03-23T02:14:36;99816.81;;;12.59;68.81
51313;BME280;37397;53.226;10.400;2023-03-23T02:17:09;99805.06;;;12.57;69.11
51313;BME280;37397;53.226;10.400;2023-03-23T02:19:41;99804.81;;;12.55;69.00
51313;BME280;37397;53.226;10.400;2023-03-23T02:22:22;99797.81;;;12.56;68.88
51313;BME280;37397;53.226;10.400;2023-03-23T02:25:22;99806.91;;;12.54;69.08
51313;BME280;37397;53.226;10.400;2023-03-23T02:30:52;99798.56;;;12.51;69.16
51313;BME280;37397;53.226;10.400;2023-03-23T02:33:58;99789.22;;;12.50;69.01
51313;BME280;37397;53.226;10.400;2023-03-23T02:36:36;99795.69;;;12.51;69.15
51313;BME280;37397;53.226;10.400;2023-03-23T02:39:14;99798.31;;;12.49;69.22
51313;BME280;37397;53.226;10.400;2023-03-23T02:42:05;99796.22;;;12.49;69.31
51313;BME280;37397;53.226;10.400;2023-03-23T02:44:34;99803.50;;;12.50;69.26
51313;BME280;37397;53.226;10.400;2023-03-23T02:47:03;99803.50;;;12.50;69.44
51313;BME280;37397;53.226;10.400;2023-03-23T02:49:31;99783.75;;;12.47;69.50
51313;BME280;37397;53.226;10.400;2023-03-23T02:51:59;99794.94;;;12.50;69.53
51313;BME280;37397;53.226;10.400;2023-03-23T02:54:27;99794.94;;;12.50;69.50
51313;BME280;37397;53.226;10.400;2023-03-23T02:56:55;99783.22;;;12.48;69.47
51313;BME280;37397;53.226;10.400;2023-03-23T02:59:26;99772.31;;;12.47;69.38
51313;BME280;37397;53.226;10.400;2023-03-23T03:01:58;99776.19;;;12.49;69.53
51313;BME280;37397;53.226;10.400;2023-03-23T03:04:26;99771.28;;;12.50;69.61
51313;BME280;37397;53.226;10.400;2023-03-23T03:07:07;99775.41;;;12.49;69.37
51313;BME280;37397;53.226;10.400;2023-03-23T03:09:59;99770.22;;;12.47;69.46
51313;BME280;37397;53.226;10.400;2023-03-23T03:12:44;99750.47;;;12.44;69.61
51313;BME280;37397;53.226;10.400;2023-03-23T03:15:45;99765.00;;;12.46;69.59
51313;BME280;37397;53.226;10.400;2023-03-23T03:18:38;99766.84;;;12.43;69.81
51313;BME280;37397;53.226;10.400;2023-03-23T03:21:12;99775.69;;;12.45;69.73
51313;BME280;37397;53.226;10.400;2023-03-23T03:23:42;99767.63;;;12.44;69.85
51313;BME280;37397;53.226;10.400;2023-03-23T03:26:11;99753.56;;;12.46;69.89
51313;BME280;37397;53.226;10.400;2023-03-23T03:28:47;99743.69;;;12.47;69.86
51313;BME280;37397;53.226;10.400;2023-03-23T03:31:17;99726.53;;;12.47;69.92
51313;BME280;37397;53.226;10.400;2023-03-23T03:33:45;99731.19;;;12.44;69.81
51313;BME280;37397;53.226;10.400;2023-03-23T03:36:26;99708.84;;;12.43;69.76
51313;BME280;37397;53.226;10.400;2023-03-23T03:38:53;99696.34;;;12.46;70.04
51313;BME280;37397;53.226;10.400;2023-03-23T03:41:19;99730.69;;;12.46;69.98
51313;BME280;37397;53.226;10.400;2023-03-23T03:43:46;99734.84;;;12.45;69.98
51313;BME280;37397;53.226;10.400;2023-03-23T03:46:11;99733.28;;;12.44;70.05
51313;BME280;37397;53.226;10.400;2023-03-23T03:48:38;99731.47;;;12.46;70.00
51313;BME280;37397;53.226;10.400;2023-03-23T03:51:04;99724.72;;;12.44;70.07
51313;BME280;37397;53.226;10.400;2023-03-23T03:53:32;99734.84;;;12.45;70.24
51313;BME280;37397;53.226;10.400;2023-03-23T03:55:58;99724.97;;;12.46;70.14
51313;BME280;37397;53.226;10.400;2023-03-23T03:58:29;99720.03;;;12.46;70.14
51313;BME280;37397;53.226;10.400;2023-03-23T04:01:06;99727.81;;;12.46;70.09
51313;BME280;37397;53.226;10.400;2023-03-23T04:03:37;99736.41;;;12.46;70.02
51313;BME280;37397;53.226;10.400;2023-03-23T04:06:07;99720.28;;;12.43;70.20
51313;BME280;37397;53.226;10.400;2023-03-23T04:08:38;99722.09;;;12.46;70.30
51313;BME280;37397;53.226;10.400;2023-03-23T04:11:07;99711.16;;;12.44;70.08
51313;BME280;37397;53.226;10.400;2023-03-23T04:13:34;99694.81;;;12.45;70.27
51313;BME280;37397;53.226;10.400;2023-03-23T04:16:02;99685.94;;;12.43;70.37
51313;BME280;37397;53.226;10.400;2023-03-23T04:18:32;99691.16;;;12.44;70.37
51313;BME280;37397;53.226;10.400;2023-03-23T04:21:00;99680.50;;;12.45;70.26
51313;BME280;37397;53.226;10.400;2023-03-23T04:23:28;99689.59;;;12.43;70.44
51313;BME280;37397;53.226;10.400;2023-03-23T04:25:58;99669.81;;;12.45;70.28
51313;BME280;37397;53.226;10.400;2023-03-23T04:28:30;99661.50;;;12.42;70.48
51313;BME280;37397;53.226;10.400;2023-03-23T04:31:17;99663.34;;;12.39;70.17
51313;BME280;37397;53.226;10.400;2023-03-23T04:33:47;99678.69;;;12.42;70.39
51313;BME280;37397;53.226;10.400;2023-03-23T04:36:15;99679.72;;;12.38;70.38
51313;BME280;37397;53.226;10.400;2023-03-23T04:38:50;99693.22;;;12.44;70.34
51313;BME280;37397;53.226;10.400;2023-03-23T04:41:22;99680.22;;;12.43;70.37
51313;BME280;37397;53.226;10.400;2023-03-23T04:43:58;99668.53;;;12.40;70.42
51313;BME280;37397;53.226;10.400;2023-03-23T04:46:34;99684.66;;;12.38;70.44
51313;BME280;37397;53.226;10.400;2023-03-23T04:49:06;99681.03;;;12.43;70.52
51313;BME280;37397;53.226;10.400;2023-03-23T04:51:35;99679.44;;;12.42;70.53
51313;BME280;37397;53.226;10.400;2023-03-23T04:54:12;99703.38;;;12.39;70.46
51313;BME280;37397;53.226;10.400;2023-03-23T04:56:41;99700.00;;;12.40;70.65
51313;BME280;37397;53.226;10.400;2023-03-23T04:59:11;99700.78;;;12.41;70.59
51313;BME280;37397;53.226;10.400;2023-03-23T05:01:48;99700.00;;;12.40;70.62
51313;BME280;37397;53.226;10.400;2023-03-23T05:04:17;99680.75;;;12.35;70.54
51313;BME280;37397;53.226;10.400;2023-03-23T05:06:52;99684.13;;;12.39;70.64
51313;BME280;37397;53.226;10.400;2023-03-23T05:09:23;99681.00;;;12.37;70.53
51313;BME280;37397;53.226;10.400;2023-03-23T05:11:52;99673.47;;;12.40;70.61
51313;BME280;37397;53.226;10.400;2023-03-23T05:14:17;99675.53;;;12.39;70.42
51313;BME280;37397;53.226;10.400;2023-03-23T05:16:48;99684.13;;;12.39;70.58
51313;BME280;37397;53.226;10.400;2023-03-23T05:19:16;99678.41;;;12.39;70.56
51313;BME280;37397;53.226;10.400;2023-03-23T05:21:43;99678.94;;;12.38;70.70
51313;BME280;37397;53.226;10.400;2023-03-23T05:24:10;99681.25;;;12.39;70.74
51313;BME280;37397;53.226;10.400;2023-03-23T05:26:36;99681.25;;;12.39;70.58
51313;BME280;37397;53.226;10.400;2023-03-23T05:29:14;99676.88;;;12.38;70.73
51313;BME280;37397;53.226;10.400;2023-03-23T05:31:52;99678.94;;;12.38;70.84
51313;BME280;37397;53.226;10.400;2023-03-23T05:34:19;99678.94;;;12.38;70.72
51313;BME280;37397;53.226;10.400;2023-03-23T05:36:55;99681.78;;;12.38;70.73
51313;BME280;37397;53.226;10.400;2023-03-23T05:39:32;99679.19;;;12.34;70.87
51313;BME280;37397;53.226;10.400;2023-03-23T05:42:27;99679.19;;;12.34;70.62
51313;BME280;37397;53.226;10.400;2023-03-23T05:45:05;99675.31;;;12.32;70.69
51313;BME280;37397;53.226;10.400;2023-03-23T05:47:32;99676.34;;;12.34;70.69
51313;BME280;37397;53.226;10.400;2023-03-23T05:50:04;99659.97;;;12.29;70.62
51313;BME280;37397;53.226;10.400;2023-03-23T05:52:33;99669.31;;;12.35;70.57
51313;BME280;37397;53.226;10.400;2023-03-23T05:55:01;99672.69;;;12.34;70.89
51313;BME280;37397;53.226;10.400;2023-03-23T05:57:30;99664.91;;;12.34;70.78
51313;BME280;37397;53.226;10.400;2023-03-23T06:00:03;99666.97;;;12.34;70.82
51313;BME280;37397;53.226;10.400;2023-03-23T06:02:47;99669.06;;;12.33;70.92
51313;BME280;37397;53.226;10.400;2023-03-23T06:05:19;99672.97;;;12.30;70.74
51313;BME280;37397;53.226;10.400;2023-03-23T06:07:50;99681.28;;;12.34;70.92
51313;BME280;37397;53.226;10.400;2023-03-23T06:10:16;99676.34;;;12.29;70.88
51313;BME280;37397;53.226;10.400;2023-03-23T06:12:46;99689.09;;;12.33;70.96
51313;BME280;37397;53.226;10.400;2023-03-23T06:15:25;99670.63;;;12.29;70.85
51313;BME280;37397;53.226;10.400;2023-03-23T06:18:29;99666.22;;;12.28;70.75
51313;BME280;37397;53.226;10.400;2023-03-23T06:21:17;99674.03;;;12.27;71.04
51313;BME280;37397;53.226;10.400;2023-03-23T06:23:54;99658.41;;;12.28;70.97
51313;BME280;37397;53.226;10.400;2023-03-23T06:26:28;99658.41;;;12.28;71.03
51313;BME280;37397;53.226;10.400;2023-03-23T06:28:57;99671.66;;;12.31;70.97
51313;BME280;37397;53.226;10.400;2023-03-23T06:31:24;99668.78;;;12.31;71.18
51313;BME280;37397;53.226;10.400;2023-03-23T06:33:51;99681.03;;;12.32;71.17
51313;BME280;37397;53.226;10.400;2023-03-23T06:36:37;99684.41;;;12.30;71.20
51313;BME280;37397;53.226;10.400;2023-03-23T06:39:09;99683.63;;;12.30;71.08
51313;BME280;37397;53.226;10.400;2023-03-23T06:42:11;99692.72;;;12.28;71.12
51313;BME280;37397;53.226;10.400;2023-03-23T06:44:40;99701.31;;;12.28;71.12
51313;BME280;37397;53.226;10.400;2023-03-23T06:47:06;99697.16;;;12.29;71.05
51313;BME280;37397;53.226;10.400;2023-03-23T06:49:35;99696.38;;;12.29;71.11
51313;BME280;37397;53.226;10.400;2023-03-23T06:52:13;99706.25;;;12.33;70.97
51313;BME280;37397;53.226;10.400;2023-03-23T06:54:40;99682.84;;;12.29;71.14
51313;BME280;37397;53.226;10.400;2023-03-23T06:57:07;99700.53;;;12.33;71.27
51313;BME280;37397;53.226;10.400;2023-03-23T06:59:33;99694.28;;;12.29;71.01
51313;BME280;37397;53.226;10.400;2023-03-23T07:02:00;99691.44;;;12.35;71.26
51313;BME280;37397;53.226;10.400;2023-03-23T07:04:25;99689.34;;;12.35;71.13
51313;BME280;37397;53.226;10.400;2023-03-23T07:06:59;99691.69;;;12.31;71.16
51313;BME280;37397;53.226;10.400;2023-03-23T07:09:26;99685.72;;;12.35;71.21
51313;BME280;37397;53.226;10.400;2023-03-23T07:11:52;99688.81;;;12.31;71.43
51313;BME280;37397;53.226;10.400;2023-03-23T07:14:31;99686.50;;;12.35;71.10
51313;BME280;37397;53.226;10.400;2023-03-23T07:16:57;99680.00;;;12.35;71.36
51313;BME280;37397;53.226;10.400;2023-03-23T07:19:23;99687.25;;;12.36;71.40
51313;BME280;37397;53.226;10.400;2023-03-23T07:21:49;99681.78;;;12.38;71.41
51313;BME280;37397;53.226;10.400;2023-03-23T07:24:16;99687.78;;;12.40;71.57
51313;BME280;37397;53.226;10.400;2023-03-23T07:27:03;99676.63;;;12.36;71.48
51313;BME280;37397;53.226;10.400;2023-03-23T07:29:29;99695.84;;;12.42;71.68
51313;BME280;37397;53.226;10.400;2023-03-23T07:32:05;99704.69;;;12.44;71.73
51313;BME280;37397;53.226;10.400;2023-03-23T07:34:31;99698.97;;;12.44;71.90
51313;BME280;37397;53.226;10.400;2023-03-23T07:37:05;99705.72;;;12.40;71.98
51313;BME280;37397;53.226;10.400;2023-03-23T07:39:33;99707.78;;;12.46;72.21
51313;BME280;37397;53.226;10.400;2023-03-23T07:42:00;99718.19;;;12.49;72.17
51313;BME280;37397;53.226;10.400;2023-03-23T07:44:40;99714.03;;;12.50;72.24
51313;BME280;37397;53.226;10.400;2023-03-23T07:47:08;99714.03;;;12.50;72.21
51313;BME280;37397;53.226;10.400;2023-03-23T07:49:34;99723.66;;;12.52;72.15
51313;BME280;37397;53.226;10.400;2023-03-23T07:52:21;99706.25;;;12.45;72.12
51313;BME280;37397;53.226;10.400;2023-03-23T07:54:47;99721.06;;;12.54;72.25
51313;BME280;37397;53.226;10.400;2023-03-23T07:57:33;99719.22;;;12.57;72.35
51313;BME280;37397;53.226;10.400;2023-03-23T07:59:59;99722.09;;;12.57;72.14
51313;BME280;37397;53.226;10.400;2023-03-23T08:02:26;99718.69;;;12.58;72.17
51313;BME280;37397;53.226;10.400;2023-03-23T08:05:10;99704.41;;;12.53;72.18
51313;BME280;37397;53.226;10.400;2023-03-23T08:08:05;99710.13;;;12.58;72.21
51313;BME280;37397;53.226;10.400;2023-03-23T08:10:52;99703.88;;;12.60;72.08
51313;BME280;37397;53.226;10.400;2023-03-23T08:13:38;99718.19;;;12.60;72.03
51313;BME280;37397;53.226;10.400;2023-03-23T08:16:34;99720.78;;;12.58;72.10
51313;BME280;37397;53.226;10.400;2023-03-23T08:19:06;99725.47;;;12.61;71.99
51313;BME280;37397;53.226;10.400;2023-03-23T08:21:49;99724.16;;;12.62;72.04
51313;BME280;37397;53.226;10.400;2023-03-23T08:24:23;99720.00;;;12.63;72.01
51313;BME280;37397;53.226;10.400;2023-03-23T08:27:05;99716.34;;;12.63;71.94
51313;BME280;37397;53.226;10.400;2023-03-23T08:29:55;99714.28;;;12.63;71.96
51313;BME280;37397;53.226;10.400;2023-03-23T08:32:41;99714.03;;;12.61;72.26
51313;BME280;37397;53.226;10.400;2023-03-23T08:35:13;99715.56;;;12.62;72.22
51313;BME280;37397;53.226;10.400;2023-03-23T08:37:54;99709.06;;;12.62;72.12
51313;BME280;37397;53.226;10.400;2023-03-23T08:40:38;99721.03;;;12.66;72.18
51313;BME280;37397;53.226;10.400;2023-03-23T08:43:23;99720.00;;;12.69;72.17
51313;BME280;37397;53.226;10.400;2023-03-23T08:46:15;99716.84;;;12.67;72.42
51313;BME280;37397;53.226;10.400;2023-03-23T08:48:58;99727.00;;;12.73;72.39
51313;BME280;37397;53.226;10.400;2023-03-23T08:51:42;99725.94;;;12.76;72.34
51313;BME280;37397;53.226;10.400;2023-03-23T08:54:16;99724.66;;;12.77;72.32
51313;BME280;37397;53.226;10.400;2023-03-23T08:57:02;99721.00;;;12.77;72.32
51313;BME280;37397;53.226;10.400;2023-03-23T08:59:54;99728.03;;;12.82;72.37
51313;BME280;37397;53.226;10.400;2023-03-23T09:02:32;99734.25;;;12.86;72.20
51313;BME280;37397;53.226;10.400;2023-03-23T09:05:14;99722.03;;;12.85;72.25
51313;BME280;37397;53.226;10.400;2023-03-23T09:07:58;99733.22;;;12.89;72.32
51313;BME280;37397;53.226;10.400;2023-03-23T09:10:26;99734.78;;;12.90;72.23
51313;BME280;37397;53.226;10.400;2023-03-23T09:12:53;99757.94;;;12.92;72.34
51313;BME280;37397;53.226;10.400;2023-03-23T09:15:19;99756.63;;;12.93;72.31
51313;BME280;37397;53.226;10.400;2023-03-23T09:17:46;99771.47;;;12.91;72.39
51313;BME280;37397;53.226;10.400;2023-03-23T09:20:15;99761.34;;;12.85;72.35
51313;BME280;37397;53.226;10.400;2023-03-23T09:22:43;99773.53;;;12.97;72.41
51313;BME280;37397;53.226;10.400;2023-03-23T09:25:11;99758.97;;;12.94;72.33
51313;BME280;37397;53.226;10.400;2023-03-23T09:27:37;99790.44;;;13.00;72.48
51313;BME280;37397;53.226;10.400;2023-03-23T09:30:10;99797.22;;;12.97;72.30
51313;BME280;37397;53.226;10.400;2023-03-23T09:32:38;99810.75;;;13.02;72.47
51313;BME280;37397;53.226;10.400;2023-03-23T09:35:05;99805.03;;;13.02;72.27
51313;BME280;37397;53.226;10.400;2023-03-23T09:37:37;99789.69;;;13.00;72.35
51313;BME280;37397;53.226;10.400;2023-03-23T09:40:05;99800.84;;;13.03;72.39
51313;BME280;37397;53.226;10.400;2023-03-23T09:45:26;99814.94;;;13.01;71.93
51313;BME280;37397;53.226;10.400;2023-03-23T09:50:48;99823.78;;;13.03;71.95
51313;BME280;37397;53.226;10.400;2023-03-23T09:53:20;99829.75;;;13.05;72.00
51313;BME280;37397;53.226;10.400;2023-03-23T09:55:46;99820.66;;;13.01;72.25
51313;BME280;37397;53.226;10.400;2023-03-23T09:58:22;99802.69;;;13.01;71.93
51313;BME280;37397;53.226;10.400;2023-03-23T10:01:15;99812.34;;;12.98;71.77
51313;BME280;37397;53.226;10.400;2023-03-23T10:03:44;99818.56;;;13.07;71.75
51313;BME280;37397;53.226;10.400;2023-03-23T10:06:13;99823.25;;;13.05;71.77
51313;BME280;37397;53.226;10.400;2023-03-23T10:08:51;99839.91;;;13.06;71.97
51313;BME280;37397;53.226;10.400;2023-03-23T10:11:43;99845.63;;;13.06;71.68
51313;BME280;37397;53.226;10.400;2023-03-23T10:14:39;99851.13;;;13.04;71.96
51313;BME280;37397;53.226;10.400;2023-03-23T10:17:27;99847.97;;;13.08;71.78
51313;BME280;37397;53.226;10.400;2023-03-23T10:19:57;99851.88;;;13.10;71.90
51313;BME280;37397;53.226;10.400;2023-03-23T10:22:32;99866.19;;;13.10;71.71
51313;BME280;37397;53.226;10.400;2023-03-23T10:30:33;99844.84;;;13.11;71.57
51313;BME280;37397;53.226;10.400;2023-03-23T10:33:24;99843.03;;;13.08;71.52
51313;BME280;37397;53.226;10.400;2023-03-23T10:36:00;99851.63;;;13.08;71.56
51313;BME280;37397;53.226;10.400;2023-03-23T10:38:49;99846.94;;;13.11;71.48
51313;BME280;37397;53.226;10.400;2023-03-23T10:41:19;99858.13;;;13.14;71.59
51313;BME280;37397;53.226;10.400;2023-03-23T10:43:45;99867.50;;;13.15;71.59
51313;BME280;37397;53.226;10.400;2023-03-23T10:46:43;99875.56;;;13.17;71.59
51313;BME280;37397;53.226;10.400;2023-03-23T10:49:07;99884.16;;;13.17;71.75
51313;BME280;37397;53.226;10.400;2023-03-23T10:51:40;99888.88;;;13.14;71.58
51313;BME280;37397;53.226;10.400;2023-03-23T10:54:06;99873.50;;;13.11;71.67
51313;BME280;37397;53.226;10.400;2023-03-23T10:56:36;99865.16;;;13.19;71.69
51313;BME280;37397;53.226;10.400;2023-03-23T10:59:27;99875.06;;;13.12;71.54
51313;BME280;37397;53.226;10.400;2023-03-23T11:01:55;99876.88;;;13.16;71.59
51313;BME280;37397;53.226;10.400;2023-03-23T11:04:23;99866.72;;;13.20;71.58
51313;BME280;37397;53.226;10.400;2023-03-23T11:06:52;99862.81;;;13.18;71.69
51313;BME280;37397;53.226;10.400;2023-03-23T11:09:20;99864.09;;;13.17;71.44
51313;BME280;37397;53.226;10.400;2023-03-23T11:11:54;99877.38;;;13.20;71.34
51313;BME280;37397;53.226;10.400;2023-03-23T11:14:26;99883.09;;;13.20;71.68
51313;BME280;37397;53.226;10.400;2023-03-23T11:16:58;99888.06;;;13.19;71.48
51313;BME280;37397;53.226;10.400;2023-03-23T11:19:33;99888.84;;;13.20;71.34
51313;BME280;37397;53.226;10.400;2023-03-23T11:24:40;99896.66;;;13.19;71.52
51313;BME280;37397;53.226;10.400;2023-03-23T11:27:07;99893.78;;;13.19;71.54
51313;BME280;37397;53.226;10.400;2023-03-23T11:29:35;99878.94;;;13.21;71.68
51313;BME280;37397;53.226;10.400;2023-03-23T11:32:05;99889.09;;;13.16;71.51
51313;BME280;37397;53.226;10.400;2023-03-23T11:34:35;99887.00;;;13.17;71.41
51313;BME280;37397;53.226;10.400;2023-03-23T11:37:05;99893.03;;;13.19;71.56
51313;BME280;37397;53.226;10.400;2023-03-23T11:39:33;99892.75;;;13.22;71.49
51313;BME280;37397;53.226;10.400;2023-03-23T11:42:01;99893.53;;;13.23;71.44
51313;BME280;37397;53.226;10.400;2023-03-23T11:44:41;99886.50;;;13.18;71.56
51313;BME280;37397;53.226;10.400;2023-03-23T11:47:24;99888.31;;;13.21;71.63
51313;BME280;37397;53.226;10.400;2023-03-23T11:50:01;99895.09;;;13.24;71.66
51313;BME280;37397;53.226;10.400;2023-03-23T11:52:48;99889.38;;;13.24;71.59
51313;BME280;37397;53.226;10.400;2023-03-23T11:55:21;99899.78;;;13.27;71.58
51313;BME280;37397;53.226;10.400;2023-03-23T11:57:49;99902.38;;;13.25;71.74
51313;BME280;37397;53.226;10.400;2023-03-23T12:00:17;99901.06;;;13.26;71.54
51313;BME280;37397;53.226;10.400;2023-03-23T12:03:02;99889.88;;;13.28;71.64
51313;BME280;37397;53.226;10.400;2023-03-23T12:11:24;99902.38;;;13.25;71.74
51313;BME280;37397;53.226;10.400;2023-03-23T12:14:16;99910.72;;;13.28;71.64
51313;BME280;37397;53.226;10.400;2023-03-23T12:16:57;99908.63;;;13.29;71.55
51313;BME280;37397;53.226;10.400;2023-03-23T12:19:56;99907.06;;;13.28;71.60
51313;BME280;37397;53.226;10.400;2023-03-23T12:22:42;99907.84;;;13.28;71.46
51313;BME280;37397;53.226;10.400;2023-03-23T12:25:37;99901.84;;;13.32;71.68
51313;BME280;37397;53.226;10.400;2023-03-23T12:31:11;99902.38;;;13.36;71.95
51313;BME280;37397;53.226;10.400;2023-03-23T12:33:59;99902.66;;;13.38;72.11
51313;BME280;37397;53.226;10.400;2023-03-23T12:39:38;99899.75;;;13.44;72.05
51313;BME280;37397;53.226;10.400;2023-03-23T12:44:52;99905.50;;;13.49;72.04
51313;BME280;37397;53.226;10.400;2023-03-23T12:47:32;99896.91;;;13.49;71.99
51313;BME280;37397;53.226;10.400;2023-03-23T12:50:31;99903.13;;;13.54;72.03
51313;BME280;37397;53.226;10.400;2023-03-23T12:53:34;99896.09;;;13.55;71.95
51313;BME280;37397;53.226;10.400;2023-03-23T12:56:21;99902.88;;;13.57;71.96
51313;BME280;37397;53.226;10.400;2023-03-23T12:58:53;99899.22;;;13.57;71.96
51313;BME280;37397;53.226;10.400;2023-03-23T13:01:26;99898.69;;;13.64;72.00
51313;BME280;37397;53.226;10.400;2023-03-23T13:03:58;99901.81;;;13.66;71.83
51313;BME280;37397;53.226;10.400;2023-03-23T13:11:53;99885.13;;;13.70;71.89
51313;BME280;37397;53.226;10.400;2023-03-23T13:14:31;99890.84;;;13.70;71.87
51313;BME280;37397;53.226;10.400;2023-03-23T13:25:17;99886.94;;;13.67;71.98
51313;BME280;37397;53.226;10.400;2023-03-23T13:27:44;99893.16;;;13.72;72.15
51313;BME280;37397;53.226;10.400;2023-03-23T13:30:19;99888.22;;;13.72;71.85
51313;BME280;37397;53.226;10.400;2023-03-23T13:32:50;99893.41;;;13.79;71.96
51313;BME280;37397;53.226;10.400;2023-03-23T13:35:18;99889.25;;;13.80;71.86
51313;BME280;37397;53.226;10.400;2023-03-23T13:37:49;99891.88;;;13.78;71.88
51313;BME280;37397;53.226;10.400;2023-03-23T13:40:27;99879.59;;;13.83;71.74
51313;BME280;37397;53.226;10.400;2023-03-23T13:42:56;99868.13;;;13.83;71.91
51313;BME280;37397;53.226;10.400;2023-03-23T13:48:19;99877.72;;;13.86;71.81
51313;BME280;37397;53.226;10.400;2023-03-23T13:50:52;99858.47;;;13.86;71.94
51313;BME280;37397;53.226;10.400;2023-03-23T13:53:25;99865.72;;;13.88;71.63
51313;BME280;37397;53.226;10.400;2023-03-23T13:56:04;99858.16;;;13.90;71.46
51313;BME280;37397;53.226;10.400;2023-03-23T13:58:30;99870.69;;;13.93;71.81
51313;BME280;37397;53.226;10.400;2023-03-23T14:03:38;99878.22;;;13.96;71.24
51313;BME280;37397;53.226;10.400;2023-03-23T14:06:13;99874.03;;;13.97;71.29
51313;BME280;37397;53.226;10.400;2023-03-23T14:11:46;99890.19;;;14.00;71.18
51313;BME280;37397;53.226;10.400;2023-03-23T14:14:26;99880.28;;;14.01;71.05
51313;BME280;37397;53.226;10.400;2023-03-23T14:17:05;99881.34;;;13.98;70.88
51313;BME280;37397;53.226;10.400;2023-03-23T14:19:31;99896.44;;;14.04;71.08